Time;durP1;ratioP1;P1;durP2;ratioP2;P2;SDS_P1;SDS_P2;PMS_P1;PMS_P2;Temp;Humidity;BMP_temperature;BMP_pressure;BME280_temperature;BME280_humidity;BME280_pressure;Samples;Min_cycle;Max_cycle;Signal;HPM_P1;HPM_P2
2023/03/20 00:01:20;;;;;;;10.38;9.50;;;9.10;99.90;;;9.91;100.00;98141.84;5233556;28;20200;-61
2023/03/20 00:03:53;;;;;;;8.90;8.20;;;9.10;99.90;;;9.92;100.00;98138.50;5227859;28;20312;-63
2023/03/20 00:06:28;;;;;;;8.95;7.82;;;9.00;99.90;;;9.91;100.00;98141.84;5236927;28;20204;-64
2023/03/20 00:09:03;;;;;;;9.15;8.52;;;9.00;99.90;;;9.92;100.00;98138.50;5239481;28;20648;-63
2023/03/20 00:11:47;;;;;;;9.57;8.60;;;9.00;99.90;;;9.89;100.00;98145.97;5238541;28;20667;-64
2023/03/20 00:14:23;;;;;;;8.95;8.15;;;9.00;99.90;;;9.88;100.00;98141.66;5240465;28;20863;-63
2023/03/20 00:16:59;;;;;;;8.57;7.88;;;9.00;99.90;;;9.90;100.00;98147.75;5238268;28;20215;-63
2023/03/20 00:19:32;;;;;;;8.77;8.00;;;9.00;99.90;;;9.84;100.00;98139.72;5241170;28;20251;-64
2023/03/20 00:22:05;;;;;;;10.43;9.53;;;9.00;99.90;;;9.86;100.00;98140.69;5242081;28;20201;-63
2023/03/20 00:24:38;;;;;;;11.43;10.43;;;9.10;99.90;;;9.85;100.00;98133.81;5238026;28;20775;-64
2023/03/20 00:27:15;;;;;;;11.15;10.25;;;9.00;99.90;;;9.83;100.00;98135.38;5241878;28;20554;-62
2023/03/20 00:29:48;;;;;;;11.60;10.60;;;9.10;99.90;;;9.84;100.00;98129.50;5240418;28;20571;-64
2023/03/20 00:32:23;;;;;;;12.93;11.77;;;9.10;99.90;;;9.87;100.00;98123.69;5235576;28;20312;-63
2023/03/20 00:34:56;;;;;;;13.00;11.98;;;9.10;99.90;;;9.90;100.00;98136.63;5234792;28;20230;-63
2023/03/20 00:37:29;;;;;;;11.45;10.52;;;9.10;99.90;;;9.93;100.00;98122.44;5252585;28;20621;-63
2023/03/20 00:40:03;;;;;;;13.02;11.82;;;9.10;99.90;;;9.96;100.00;98129.41;5238937;28;20227;-63
2023/03/20 00:42:36;;;;;;;11.57;10.57;;;9.10;99.90;;;9.98;100.00;98129.47;5233745;28;20292;-62
2023/03/20 00:45:14;;;;;;;10.73;9.77;;;9.20;99.90;;;10.01;100.00;98138.22;5239852;28;20248;-62
2023/03/20 00:47:51;;;;;;;8.93;8.02;;;9.10;99.90;;;10.05;100.00;98134.22;5233753;28;20205;-63
2023/03/20 00:50:28;;;;;;;9.68;8.85;;;9.10;99.90;;;10.01;100.00;98139.88;5233278;28;20254;-64
2023/03/20 00:53:01;;;;;;;9.82;9.07;;;9.10;99.90;;;9.97;100.00;98143.91;5239766;28;20228;-63
2023/03/20 00:55:34;;;;;;;10.50;9.60;;;9.10;99.90;;;9.94;100.00;98146.28;5241096;28;20211;-63
2023/03/20 00:58:11;;;;;;;9.90;9.00;;;9.10;99.90;;;9.93;100.00;98140.31;5238726;28;20619;-64
2023/03/20 01:00:45;;;;;;;10.30;9.45;;;9.10;99.90;;;9.99;100.00;98139.81;5237055;28;20695;-64
2023/03/20 01:03:23;;;;;;;9.02;8.32;;;9.10;99.90;;;10.02;100.00;98131.47;5231970;28;20220;-64
2023/03/20 01:05:57;;;;;;;10.13;9.23;;;9.10;99.90;;;10.02;100.00;98134.00;5233085;28;20289;-61
2023/03/20 01:08:30;;;;;;;10.80;9.90;;;9.10;99.90;;;9.95;100.00;98139.50;5242378;28;20620;-63
2023/03/20 01:11:03;;;;;;;8.98;8.18;;;9.10;99.90;;;9.90;100.00;98141.75;5238463;28;20578;-63
2023/03/20 01:13:40;;;;;;;10.85;9.95;;;9.10;99.90;;;9.91;100.00;98141.84;5236856;28;20248;-64
2023/03/20 01:16:22;;;;;;;10.97;10.07;;;9.10;99.90;;;9.92;100.00;98143.63;5239264;28;20200;-64
2023/03/20 01:18:56;;;;;;;11.33;10.43;;;9.20;99.90;;;9.92;100.00;98135.97;5234813;28;20211;-61
2023/03/20 01:21:30;;;;;;;11.15;10.25;;;9.20;99.90;;;9.94;100.00;98141.19;5239138;28;20227;-63
2023/03/20 01:24:04;;;;;;;10.75;9.85;;;9.20;99.90;;;9.93;100.00;98141.97;5237292;28;20312;-63
2023/03/20 01:26:39;;;;;;;10.60;9.80;;;9.20;99.90;;;9.97;100.00;98145.59;5236786;28;20769;-62
2023/03/20 01:29:19;;;;;;;11.33;10.27;;;9.20;99.90;;;10.00;100.00;98143.25;5233756;28;20214;-63
2023/03/20 01:31:53;;;;;;;11.03;10.13;;;9.20;99.90;;;10.00;100.00;98141.56;5240323;28;20295;-63
2023/03/20 01:34:27;;;;;;;10.88;9.98;;;9.20;99.90;;;9.99;100.00;98134.69;5237742;28;20290;-63
2023/03/20 01:37:01;;;;;;;10.60;9.70;;;9.20;99.90;;;10.04;100.00;98137.53;5239032;28;20220;-62
2023/03/20 01:39:36;;;;;;;11.15;10.23;;;9.20;99.90;;;10.07;100.00;98153.03;5236076;28;20323;-64
2023/03/20 01:42:14;;;;;;;12.23;11.23;;;9.20;99.90;;;10.08;100.00;98150.59;5238836;28;20204;-63
2023/03/20 01:44:47;;;;;;;11.85;10.77;;;9.20;99.90;;;10.06;100.00;98147.06;5237007;28;20230;-63
2023/03/20 01:47:24;;;;;;;11.13;10.33;;;9.30;99.90;;;10.06;100.00;98151.28;5240102;28;20202;-63
2023/03/20 01:50:26;;;;;;;13.02;11.93;;;9.30;99.90;;;10.04;100.00;98151.16;5243054;28;20196;-62
2023/03/20 01:53:08;;;;;;;13.52;12.43;;;9.30;99.90;;;10.06;100.00;98154.72;5228681;28;20273;-62
2023/03/20 01:55:43;;;;;;;12.10;11.10;;;9.30;99.90;;;10.06;100.00;98157.28;5236068;28;21231;-62
2023/03/20 01:58:21;;;;;;;11.20;10.33;;;9.20;99.90;;;10.04;100.00;98157.94;5245320;28;20247;-63
2023/03/20 02:00:56;;;;;;;13.47;12.37;;;9.20;99.90;;;10.05;100.00;98149.53;5237428;28;20218;-63
2023/03/20 02:03:29;;;;;;;12.95;11.95;;;9.20;99.90;;;10.06;100.00;98146.19;5238370;28;20228;-64
2023/03/20 02:06:06;;;;;;;12.97;11.80;;;9.30;99.90;;;10.08;100.00;98144.63;5234510;28;20203;-63
2023/03/20 02:08:45;;;;;;;12.50;11.50;;;9.20;99.90;;;10.05;100.00;98150.41;5234316;28;20204;-64
2023/03/20 02:11:22;;;;;;;13.13;12.02;;;9.20;99.90;;;10.03;100.00;98148.53;5243235;28;20193;-63
2023/03/20 02:13:59;;;;;;;13.27;12.18;;;9.20;99.90;;;9.99;100.00;98142.34;5237155;28;20228;-63
2023/03/20 02:16:32;;;;;;;11.93;11.02;;;9.20;99.90;;;9.95;100.00;98149.72;5240500;28;20197;-64
2023/03/20 02:19:12;;;;;;;12.43;11.45;;;9.20;99.90;;;9.91;100.00;98152.06;5239981;28;20650;-63
2023/03/20 02:22:35;;;;;;;11.60;10.80;;;9.10;99.90;;;9.88;100.00;98151.88;5241331;28;20206;-63
2023/03/20 02:26:05;;;;;;;10.85;9.95;;;9.10;99.90;;;9.80;100.00;98154.72;5224963;28;20220;-63
2023/03/20 02:29:38;;;;;;;11.10;10.13;;;9.00;99.90;;;9.70;100.00;98161.78;5209164;28;20204;-63
2023/03/20 02:33:10;;;;;;;10.10;9.30;;;8.90;99.90;;;9.66;100.00;98164.03;5239597;28;20645;-64
2023/03/20 02:36:41;;;;;;;10.73;9.73;;;8.80;99.90;;;9.62;100.00;98172.28;5233471;28;20200;-64
2023/03/20 02:39:47;;;;;;;10.10;9.30;;;8.80;99.90;;;9.72;100.00;98174.63;5169548;28;20203;-63
2023/03/20 02:42:30;;;;;;;10.63;9.77;;;8.80;99.90;;;9.69;100.00;98175.31;5233615;28;20283;-63
2023/03/20 02:45:15;;;;;;;11.43;10.43;;;8.80;99.90;;;9.62;100.00;98177.38;5234205;28;20224;-64
2023/03/20 02:47:54;;;;;;;10.67;9.73;;;8.90;99.90;;;9.61;100.00;98170.50;5239509;28;22027;-64
2023/03/20 02:50:36;;;;;;;11.07;10.17;;;8.80;99.90;;;9.62;100.00;98178.25;5236095;28;20195;-63
2023/03/20 02:53:24;;;;;;;11.80;10.60;;;8.90;99.90;;;9.66;100.00;98174.25;5231821;28;20201;-62
2023/03/20 02:56:11;;;;;;;11.00;10.00;;;8.90;99.90;;;9.68;100.00;98177.78;5238065;28;20207;-63
2023/03/20 02:58:51;;;;;;;9.67;8.97;;;8.80;99.90;;;9.67;100.00;98176.00;5240680;28;20192;-63
2023/03/20 03:01:32;;;;;;;10.00;9.13;;;8.80;99.90;;;9.66;100.00;98179.34;5237667;28;20219;-64
2023/03/20 03:04:09;;;;;;;9.02;8.32;;;8.80;99.90;;;9.63;100.00;98176.59;5238493;28;20230;-63
2023/03/20 03:06:45;;;;;;;10.40;9.50;;;8.80;99.90;;;9.62;100.00;98178.25;5237083;28;20560;-63
2023/03/20 03:09:22;;;;;;;10.57;9.65;;;8.80;99.90;;;9.63;100.00;98184.25;5237351;28;20196;-64
2023/03/20 03:12:03;;;;;;;10.35;9.45;;;8.80;99.90;;;9.63;100.00;98180.03;5234529;28;20204;-64
2023/03/20 03:14:39;;;;;;;10.80;9.50;;;8.80;99.90;;;9.67;100.00;98181.09;5239580;28;20238;-64
2023/03/20 03:17:14;;;;;;;10.10;9.27;;;8.80;99.90;;;9.69;100.00;98182.09;5228706;28;20216;-63
2023/03/20 03:19:52;;;;;;;9.70;8.93;;;8.80;99.90;;;9.71;100.00;98183.09;5237012;28;20443;-63
2023/03/20 03:22:26;;;;;;;10.00;9.23;;;8.90;99.90;;;9.72;100.00;98181.41;5238983;28;20239;-63
2023/03/20 03:25:00;;;;;;;9.95;9.10;;;8.90;99.90;;;9.70;100.00;98182.22;5240147;28;20227;-63
2023/03/20 03:27:38;;;;;;;10.38;9.57;;;8.90;99.90;;;9.69;100.00;98179.53;5231114;28;20207;-63
2023/03/20 03:30:18;;;;;;;9.75;9.02;;;8.80;99.90;;;9.67;100.00;98176.00;5236530;28;20206;-62
2023/03/20 03:33:02;;;;;;;8.32;7.72;;;8.80;99.90;;;9.64;100.00;98178.34;5235794;28;20193;-62
2023/03/20 03:35:36;;;;;;;8.35;7.75;;;8.80;99.90;;;9.60;100.00;98182.38;5232455;28;20212;-64
2023/03/20 03:38:26;;;;;;;8.75;7.95;;;8.80;99.90;;;9.53;100.00;98181.84;5233638;28;20203;-63
2023/03/20 03:41:18;;;;;;;7.90;7.30;;;8.80;99.90;;;9.46;100.00;98176.34;5235792;28;20311;-63
2023/03/20 03:44:00;;;;;;;8.27;7.63;;;8.60;99.90;;;9.54;100.00;98178.53;5236813;28;20639;-62
2023/03/20 03:46:41;;;;;;;7.90;7.30;;;8.70;99.90;;;9.51;100.00;98188.56;5241581;28;20245;-63
2023/03/20 03:49:22;;;;;;;8.20;7.60;;;8.70;99.90;;;9.47;100.00;98190.91;5237707;28;20197;-63
2023/03/20 03:52:00;;;;;;;8.18;7.47;;;8.60;99.90;;;9.45;100.00;98194.13;5237469;28;20634;-64
2023/03/20 03:54:40;;;;;;;8.67;7.97;;;8.60;99.90;;;9.46;100.00;98193.34;5237633;28;20216;-64
2023/03/20 03:57:16;;;;;;;9.40;8.32;;;8.60;99.90;;;9.45;100.00;98199.22;5232303;28;20198;-63
2023/03/20 03:59:52;;;;;;;9.37;8.67;;;8.60;99.90;;;9.46;100.00;98190.78;5232241;28;20644;-62
2023/03/20 04:02:27;;;;;;;9.17;8.37;;;8.70;99.90;;;9.50;100.00;98195.31;5238591;28;20596;-63
2023/03/20 04:05:03;;;;;;;10.00;9.10;;;8.70;99.90;;;9.48;100.00;98190.09;5235870;28;20526;-63
2023/03/20 04:07:37;;;;;;;9.47;8.77;;;8.70;99.90;;;9.50;100.00;98196.97;5235193;28;20679;-64
2023/03/20 04:10:11;;;;;;;10.93;10.03;;;8.70;99.90;;;9.51;100.00;98201.31;5237306;28;20207;-63
2023/03/20 04:12:45;;;;;;;10.10;9.37;;;8.70;99.90;;;9.53;100.00;98208.28;5233024;28;20211;-64
2023/03/20 04:15:20;;;;;;;11.23;10.25;;;8.70;99.90;;;9.56;100.00;98212.72;5235551;28;20229;-63
2023/03/20 04:17:54;;;;;;;8.90;8.20;;;8.70;99.90;;;9.59;100.00;98207.81;5230756;28;20655;-64
2023/03/20 04:20:27;;;;;;;9.50;8.80;;;8.70;99.90;;;9.59;100.00;98211.25;5231003;28;20582;-62
2023/03/20 04:23:00;;;;;;;9.20;8.37;;;8.70;99.90;;;9.62;100.00;98208.00;5234212;28;20213;-62
2023/03/20 04:25:33;;;;;;;8.57;7.87;;;8.70;99.90;;;9.55;100.00;98206.69;5238104;28;20216;-64
2023/03/20 04:28:07;;;;;;;8.93;8.13;;;8.70;99.90;;;9.54;100.00;98204.06;5239664;28;20640;-63
2023/03/20 04:30:43;;;;;;;8.38;7.78;;;8.70;99.90;;;9.52;100.00;98208.16;5235623;28;20201;-64
2023/03/20 04:33:16;;;;;;;7.73;7.10;;;8.60;99.90;;;9.43;100.00;98205.88;5231648;28;20221;-63
2023/03/20 04:35:49;;;;;;;9.10;8.40;;;8.60;99.90;;;9.47;100.00;98207.84;5230959;28;20303;-62
2023/03/20 04:38:23;;;;;;;8.93;8.23;;;8.60;99.90;;;9.45;100.00;98217.97;5234400;28;20200;-62
2023/03/20 04:40:56;;;;;;;8.83;8.13;;;8.60;99.90;;;9.43;100.00;98214.44;5236753;28;20204;-61
2023/03/20 04:43:29;;;;;;;9.57;8.67;;;8.60;99.90;;;9.44;100.00;98218.75;5234481;28;20225;-62
2023/03/20 04:46:04;;;;;;;9.15;8.38;;;8.60;99.90;;;9.44;100.00;98207.66;5234727;28;20237;-62
2023/03/20 04:48:37;;;;;;;8.73;8.03;;;8.60;99.90;;;9.46;100.00;98214.63;5238774;28;20249;-63
2023/03/20 04:51:10;;;;;;;8.60;7.97;;;8.60;99.90;;;9.46;100.00;98217.19;5236602;28;20219;-62
2023/03/20 04:53:43;;;;;;;8.43;7.73;;;8.60;99.90;;;9.50;100.00;98213.19;5235697;28;20221;-63
2023/03/20 04:56:16;;;;;;;10.67;9.67;;;8.60;99.90;;;9.45;100.00;98215.41;5242956;28;20702;-62
2023/03/20 04:58:50;;;;;;;10.20;9.30;;;8.60;99.90;;;9.34;100.00;98211.25;5238566;28;20201;-62
2023/03/20 05:01:24;;;;;;;9.35;8.57;;;8.50;99.90;;;9.31;100.00;98211.06;5237665;28;20220;-61
2023/03/20 05:03:59;;;;;;;9.77;8.98;;;8.50;99.90;;;9.28;100.00;98205.75;5235729;28;20651;-62
2023/03/20 05:06:33;;;;;;;10.10;9.20;;;8.50;99.90;;;9.25;100.00;98200.44;5233532;28;20200;-62
2023/03/20 05:09:06;;;;;;;9.80;8.80;;;8.50;99.90;;;9.21;100.00;98204.47;5238393;28;20196;-62
2023/03/20 05:11:39;;;;;;;9.17;8.37;;;8.40;99.90;;;9.23;100.00;98210.53;5239501;28;20733;-62
2023/03/20 05:14:12;;;;;;;10.63;9.70;;;8.50;99.90;;;9.26;100.00;98204.75;5240171;28;20615;-63
2023/03/20 05:16:47;;;;;;;9.83;8.93;;;8.50;99.90;;;9.31;100.00;98220.38;5238333;28;20205;-62
2023/03/20 05:19:20;;;;;;;10.87;9.87;;;8.50;99.90;;;9.34;100.00;98223.13;5240130;28;20228;-62
2023/03/20 05:21:54;;;;;;;10.43;9.63;;;8.50;99.90;;;9.37;100.00;98223.34;5239562;28;20236;-62
2023/03/20 05:24:27;;;;;;;9.80;9.10;;;8.60;99.90;;;9.39;100.00;98229.44;5235854;28;20367;-60
2023/03/20 05:27:01;;;;;;;9.60;8.77;;;8.60;99.90;;;9.41;100.00;98236.41;5237122;28;20288;-62
2023/03/20 05:29:34;;;;;;;9.00;8.30;;;8.60;99.90;;;9.44;100.00;98240.81;5241738;28;20241;-62
2023/03/20 05:32:08;;;;;;;8.70;8.00;;;8.60;99.90;;;9.42;100.00;98235.63;5234836;28;20207;-62
2023/03/20 05:34:41;;;;;;;9.30;8.60;;;8.70;99.90;;;9.45;100.00;98238.38;5247065;28;20227;-62
2023/03/20 05:37:14;;;;;;;7.90;7.30;;;8.70;99.90;;;9.46;100.00;98245.25;5234705;28;20208;-62
2023/03/20 05:39:47;;;;;;;6.88;6.40;;;8.60;99.90;;;9.48;100.00;98241.13;5234514;28;20258;-62
2023/03/20 05:42:20;;;;;;;6.57;6.07;;;8.70;99.90;;;9.48;100.00;98246.25;5241099;28;20751;-62
2023/03/20 05:44:54;;;;;;;7.83;7.23;;;8.70;99.90;;;9.50;100.00;98248.00;5238110;28;20315;-63
2023/03/20 05:47:28;;;;;;;8.82;8.13;;;8.60;99.90;;;9.51;100.00;98252.34;5236308;28;20558;-62
2023/03/20 05:50:02;;;;;;;7.87;7.27;;;8.70;99.90;;;9.53;100.00;98251.66;5235565;28;20199;-62
2023/03/20 05:52:35;;;;;;;6.97;6.47;;;8.70;99.90;;;9.63;100.00;98251.47;5229551;28;20292;-61
2023/03/20 05:55:08;;;;;;;6.53;6.03;;;8.70;99.90;;;9.61;100.00;98262.38;5237359;28;20314;-62
2023/03/20 05:57:41;;;;;;;6.60;6.10;;;8.70;99.90;;;9.56;100.00;98246.75;5232975;28;20207;-63
2023/03/20 06:00:16;;;;;;;8.25;7.45;;;8.70;99.90;;;9.58;100.00;98251.94;5234144;28;20205;-63
2023/03/20 06:02:51;;;;;;;7.38;6.72;;;8.80;99.90;;;9.60;100.00;98250.41;5240256;28;20247;-62
2023/03/20 06:05:25;;;;;;;8.57;7.88;;;8.80;99.90;;;9.61;100.00;98245.38;5243343;28;20228;-62
2023/03/20 06:07:58;;;;;;;7.70;7.03;;;8.70;99.90;;;9.60;100.00;98255.50;5243060;28;20207;-63
2023/03/20 06:10:31;;;;;;;7.60;6.90;;;8.80;99.90;;;9.59;100.00;98256.28;5242022;28;20239;-63
2023/03/20 06:13:04;;;;;;;7.63;7.03;;;8.80;99.90;;;9.63;100.00;98265.91;5238464;28;20188;-63
2023/03/20 06:15:37;;;;;;;7.53;6.82;;;8.80;99.90;;;9.61;100.00;98262.38;5240108;28;20213;-62
2023/03/20 06:18:12;;;;;;;7.50;6.80;;;8.80;99.90;;;9.61;100.00;98268.34;5239827;28;20212;-62
2023/03/20 06:20:45;;;;;;;6.77;6.27;;;8.80;99.90;;;9.58;100.00;98263.03;5236583;28;20287;-62
2023/03/20 06:23:18;;;;;;;5.97;5.57;;;8.80;99.90;;;9.63;100.00;98273.56;5238497;28;20226;-61
2023/03/20 06:25:51;;;;;;;6.40;5.87;;;8.80;99.90;;;9.67;100.00;98280.63;5240790;28;20219;-62
2023/03/20 06:28:25;;;;;;;5.90;5.47;;;8.90;99.90;;;9.69;100.00;98285.06;5238468;28;20200;-62
2023/03/20 06:30:58;;;;;;;5.95;5.47;;;8.90;99.90;;;9.74;100.00;98281.97;5240076;28;20213;-61
2023/03/20 06:33:33;;;;;;;5.93;5.50;;;8.90;99.90;;;9.81;100.00;98272.22;5238840;28;20661;-62
2023/03/20 06:36:07;;;;;;;6.47;5.90;;;8.90;99.90;;;9.84;100.00;98277.56;5234858;28;20349;-63
2023/03/20 06:38:40;;;;;;;6.35;5.68;;;8.90;99.90;;;9.98;100.00;98272.47;5248380;28;20640;-63
2023/03/20 06:41:13;;;;;;;6.68;6.18;;;9.00;99.90;;;9.98;100.00;98275.03;5239052;28;20196;-62
2023/03/20 06:44:05;;;;;;;6.88;6.30;;;9.00;99.90;;;9.92;100.00;98273.84;5238947;28;20255;-63
2023/03/20 06:46:38;;;;;;;6.95;6.38;;;9.00;99.90;;;9.92;100.00;98276.38;5234738;28;20206;-62
2023/03/20 06:49:13;;;;;;;6.60;6.10;;;9.00;99.90;;;9.97;100.00;98274.16;5237915;28;20205;-63
2023/03/20 06:51:47;;;;;;;5.85;5.35;;;9.10;99.90;;;10.01;100.00;98280.34;5238774;28;20254;-62
2023/03/20 06:54:20;;;;;;;5.45;5.00;;;9.10;99.90;;;10.09;100.00;98271.50;5230701;28;20593;-63
2023/03/20 06:56:53;;;;;;;5.15;4.75;;;9.10;99.90;;;10.13;100.00;98268.38;5245690;28;20200;-62
2023/03/20 06:59:26;;;;;;;5.13;4.72;;;9.20;99.90;;;10.20;100.00;98262.00;5245387;28;20215;-63
2023/03/20 07:02:00;;;;;;;4.82;4.53;;;9.20;99.90;;;10.23;100.00;98265.63;5239433;28;20200;-63
2023/03/20 07:04:35;;;;;;;4.82;4.43;;;9.30;99.90;;;10.28;100.00;98268.53;5233106;28;20574;-63
2023/03/20 07:07:08;;;;;;;4.05;3.75;;;9.40;99.90;;;10.37;100.00;98264.88;5236727;28;20204;-63
2023/03/20 07:09:42;;;;;;;4.03;3.72;;;9.40;99.90;;;10.41;100.00;98267.63;5238252;28;20201;-62
2023/03/20 07:12:18;;;;;;;4.13;3.72;;;9.50;99.90;;;10.50;100.00;98263.09;5237463;28;20232;-63
2023/03/20 07:14:51;;;;;;;3.53;3.33;;;9.50;99.90;;;10.52;100.00;98271.75;5240611;28;20247;-61
2023/03/20 07:17:24;;;;;;;3.75;3.45;;;9.60;99.90;;;10.53;100.00;98274.44;5241882;28;20212;-63
2023/03/20 07:19:59;;;;;;;3.25;3.05;;;9.60;99.90;;;10.57;100.00;98272.94;5232053;28;20584;-62
2023/03/20 07:22:32;;;;;;;3.17;2.88;;;9.60;99.90;;;10.68;100.00;98278.75;5231763;28;20260;-63
2023/03/20 07:25:08;;;;;;;3.70;2.75;;;9.70;99.90;;;10.70;100.00;98285.72;5237089;28;20223;-63
2023/03/20 07:27:41;;;;;;;3.00;2.80;;;9.70;99.90;;;10.82;100.00;98273.72;5239476;28;20199;-62
2023/03/20 07:30:15;;;;;;;3.00;2.80;;;9.80;99.90;;;11.01;100.00;98278.28;5236592;28;20204;-63
2023/03/20 07:32:48;;;;;;;2.35;2.20;;;9.90;99.90;;;11.15;100.00;98265.47;5236392;28;20660;-62
2023/03/20 07:35:23;;;;;;;2.80;2.60;;;10.00;99.90;;;11.21;100.00;98271.81;5234095;28;20224;-63
2023/03/20 07:37:56;;;;;;;2.60;2.47;;;10.20;99.90;;;11.43;99.09;98280.81;5242292;28;20629;-64
2023/03/20 07:40:30;;;;;;;3.03;2.83;;;10.30;99.90;;;11.53;98.81;98288.25;5248915;28;20201;-63
2023/03/20 07:43:03;;;;;;;2.50;2.40;;;10.50;99.90;;;11.53;98.15;98290.81;5242208;28;20311;-63
2023/03/20 07:45:37;;;;;;;2.30;2.20;;;10.50;99.90;;;11.62;96.30;98293.94;5232456;28;20299;-63
2023/03/20 07:48:10;;;;;;;2.40;2.25;;;10.50;99.90;;;11.70;94.94;98292.72;5224165;28;20225;-63
2023/03/20 07:50:45;;;;;;;2.65;2.40;;;10.50;99.90;;;11.58;95.58;98294.53;5239521;28;20232;-62
2023/03/20 07:53:18;;;;;;;2.42;2.33;;;10.50;99.90;;;11.52;95.12;98290.72;5239100;28;20302;-63
2023/03/20 07:55:51;;;;;;;2.35;2.15;;;10.50;99.90;;;11.49;95.22;98291.44;5231734;28;20234;-63
2023/03/20 07:58:24;;;;;;;2.60;2.40;;;10.30;99.90;;;11.59;93.88;98287.72;5249017;28;20212;-63
2023/03/20 08:00:58;;;;;;;2.30;2.10;;;10.40;99.90;;;11.52;93.93;98291.59;5228222;28;20209;-64
2023/03/20 08:03:31;;;;;;;2.50;2.40;;;10.40;99.90;;;11.48;93.32;98284.56;5229969;28;20235;-63
2023/03/20 08:06:08;;;;;;;2.55;2.38;;;10.40;99.90;;;11.73;92.48;98285.22;5236929;28;20665;-63
2023/03/20 08:08:41;;;;;;;2.33;2.13;;;10.50;99.90;;;11.85;90.08;98272.28;5223201;28;20213;-64
2023/03/20 08:11:15;;;;;;;2.10;2.00;;;10.70;99.90;;;11.86;89.97;98268.03;5231606;28;20699;-63
2023/03/20 08:13:48;;;;;;;2.03;1.92;;;10.90;99.90;;;12.01;89.58;98271.47;5223664;28;20705;-63
2023/03/20 08:16:21;;;;;;;3.13;2.22;;;10.90;99.90;;;12.19;88.78;98271.69;5235234;28;20553;-62
2023/03/20 08:18:59;;;;;;;2.33;2.15;;;11.10;99.90;;;12.47;87.26;98268.09;5239557;28;20595;-63
2023/03/20 08:21:34;;;;;;;2.10;2.00;;;11.30;99.90;;;12.61;86.84;98270.63;5243167;28;20206;-63
2023/03/20 08:24:08;;;;;;;2.10;2.00;;;11.50;99.90;;;12.62;84.41;98271.53;5252386;28;20671;-63
2023/03/20 08:26:42;;;;;;;2.10;2.00;;;11.50;99.90;;;12.61;84.29;98270.63;5231044;28;20205;-62
2023/03/20 08:29:18;;;;;;;2.00;1.90;;;11.50;99.90;;;12.56;84.71;98276.31;5234675;28;20290;-63
2023/03/20 08:31:51;;;;;;;2.20;2.00;;;11.50;99.90;;;12.57;84.45;98276.41;5227605;28;20232;-63
2023/03/20 08:34:25;;;;;;;1.98;1.88;;;11.50;99.90;;;12.70;82.70;98279.63;5230200;28;20228;-62
2023/03/20 08:36:59;;;;;;;1.80;1.70;;;11.70;99.90;;;12.83;82.08;98271.84;5230369;28;20287;-63
2023/03/20 08:39:33;;;;;;;1.85;1.70;;;11.80;99.90;;;12.97;80.50;98280.28;5227193;28;20211;-63
2023/03/20 08:42:06;;;;;;;1.60;1.50;;;12.00;99.90;;;12.97;79.37;98270.91;5232532;28;20640;-63
2023/03/20 08:44:39;;;;;;;1.40;1.40;;;12.10;99.90;;;13.08;79.01;98268.91;5234304;28;20252;-64
2023/03/20 08:47:12;;;;;;;2.30;1.30;;;12.10;99.90;;;13.08;78.95;98274.06;5238285;28;20284;-62
2023/03/20 08:49:46;;;;;;;1.60;1.42;;;12.10;99.90;;;13.18;76.64;98265.16;5237550;28;20208;-63
2023/03/20 08:52:20;;;;;;;1.80;1.70;;;12.20;99.90;;;13.25;78.26;98270.75;5250140;28;20632;-62
2023/03/20 08:54:53;;;;;;;1.92;1.83;;;12.30;99.90;;;13.43;76.48;98273.38;5235041;28;20217;-62
2023/03/20 08:57:27;;;;;;;1.65;1.60;;;12.40;99.90;;;13.57;75.43;98275.81;5243263;28;20286;-63
2023/03/20 09:00:00;;;;;;;1.80;1.70;;;12.50;99.90;;;13.61;75.63;98277.72;5239944;28;20232;-63
2023/03/20 09:02:33;;;;;;;1.50;1.50;;;12.70;99.90;;;13.82;74.91;98277.91;5236953;28;20637;-63
2023/03/20 09:05:08;;;;;;;1.92;1.83;;;13.10;99.90;;;14.01;74.04;98275.47;5227726;28;20232;-63
2023/03/20 09:07:43;;;;;;;1.90;1.70;;;13.30;99.90;;;14.12;73.10;98278.59;5226681;28;20279;-63
2023/03/20 09:10:16;;;;;;;1.75;1.65;;;13.30;99.90;;;14.22;73.51;98278.22;5243015;28;20744;-62
2023/03/20 09:12:49;;;;;;;1.67;1.58;;;13.40;99.90;;;14.47;71.03;98276.88;5226606;28;20233;-64
2023/03/20 09:15:22;;;;;;;2.03;1.45;;;13.50;99.90;;;14.51;70.97;98276.22;5238353;28;20197;-62
2023/03/20 09:17:55;;;;;;;1.75;1.63;;;13.60;99.90;;;14.38;71.46;98280.75;5242611;28;20744;-63
2023/03/20 09:20:28;;;;;;;2.05;1.95;;;13.40;99.90;;;14.46;71.05;98283.72;5230210;28;20639;-63
2023/03/20 09:23:03;;;;;;;2.00;1.90;;;13.40;99.90;;;14.36;70.80;98284.94;5225511;28;20204;-63
2023/03/20 09:25:36;;;;;;;1.88;1.77;;;13.30;99.90;;;14.14;69.71;98279.56;5235332;28;20591;-63
2023/03/20 09:28:10;;;;;;;1.70;1.50;;;13.10;99.90;;;13.98;71.73;98280.47;5237914;28;20663;-63
2023/03/20 09:30:44;;;;;;;1.70;1.60;;;12.90;99.90;;;14.17;70.72;98277.16;5238781;28;20231;-63
2023/03/20 09:33:17;;;;;;;2.10;2.00;;;12.90;99.90;;;14.17;70.80;98284.84;5243127;28;20322;-63
2023/03/20 09:35:51;;;;;;;1.50;1.40;;;12.90;99.90;;;14.05;72.84;98289.38;5232208;28;20250;-63
2023/03/20 09:38:25;;;;;;;1.52;1.48;;;12.90;99.90;;;14.14;73.81;98289.84;5233926;28;20656;-63
2023/03/20 09:41:01;;;;;;;2.10;1.98;;;13.10;99.90;;;14.30;71.94;98279.50;5227002;28;20207;-63
2023/03/20 09:43:47;;;;;;;1.63;1.58;;;13.20;99.90;;;14.44;70.92;98282.75;5231695;28;20316;-62
2023/03/20 09:46:37;;;;;;;2.20;2.10;;;13.30;99.90;;;14.49;69.56;98280.41;5239375;28;20287;-63
2023/03/20 09:49:25;;;;;;;2.10;2.00;;;13.30;99.90;;;14.36;70.21;98284.94;5240939;28;20205;-63
2023/03/20 09:52:00;;;;;;;1.83;1.73;;;13.20;99.90;;;14.46;68.89;98282.84;5230701;28;20201;-63
2023/03/20 09:54:40;;;;;;;1.70;1.60;;;13.20;99.90;;;14.38;68.07;98277.31;5233301;28;20256;-64
2023/03/20 09:57:29;;;;;;;1.67;1.58;;;13.20;99.90;;;14.32;68.07;98282.16;5227465;28;20220;-64
2023/03/20 10:00:09;;;;;;;1.83;1.73;;;13.20;99.90;;;14.09;67.57;98283.59;5235673;28;20207;-63
2023/03/20 10:02:48;;;;;;;1.45;1.35;;;13.00;99.90;;;14.04;70.39;98283.34;5236846;28;20197;-63
2023/03/20 10:05:27;;;;;;;2.10;2.00;;;12.90;99.90;;;13.98;69.72;98290.75;5228379;28;20227;-63
2023/03/20 10:08:03;;;;;;;1.85;1.75;;;12.90;99.90;;;14.17;68.72;98282.28;5245525;28;20201;-63
2023/03/20 10:10:49;;;;;;;1.85;1.75;;;13.00;99.90;;;14.09;69.73;98275.88;5243513;28;20199;-63
2023/03/20 10:13:44;;;;;;;2.20;2.10;;;12.90;99.90;;;14.15;68.63;98273.59;5245517;28;20220;-62
2023/03/20 10:16:26;;;;;;;1.70;1.60;;;13.00;99.90;;;14.07;68.80;98270.66;5238736;28;20201;-64
2023/03/20 10:19:09;;;;;;;2.00;1.90;;;13.00;99.90;;;14.22;68.24;98267.94;5233511;28;20195;-63
2023/03/20 10:21:45;;;;;;;2.05;1.95;;;13.00;99.90;;;14.54;66.71;98269.56;5253110;28;20205;-63
2023/03/20 10:24:28;;;;;;;2.15;2.05;;;13.20;99.90;;;14.35;67.36;98267.75;5229919;28;20260;-63
2023/03/20 10:27:14;;;;;;;1.88;1.77;;;13.10;99.90;;;14.36;66.83;98272.06;5225175;28;20193;-63
2023/03/20 10:30:00;;;;;;;1.95;1.85;;;13.00;99.90;;;14.16;67.28;98280.50;5232857;28;20193;-63
2023/03/20 10:32:38;;;;;;;2.78;2.58;;;12.90;99.90;;;14.12;66.54;98283.75;5236076;28;20275;-63
2023/03/20 10:35:22;;;;;;;2.30;2.10;;;12.80;99.90;;;14.00;68.67;98285.69;5238581;28;20216;-63
2023/03/20 10:38:14;;;;;;;2.20;2.05;;;12.70;99.90;;;13.96;67.44;98284.66;5243801;28;20223;-63
2023/03/20 10:40:48;;;;;;;2.17;2.08;;;12.70;99.90;;;13.86;68.51;98287.56;5227848;28;20291;-62
2023/03/20 10:43:27;;;;;;;2.60;2.40;;;12.60;99.90;;;13.75;69.88;98289.59;5245517;28;20307;-62
2023/03/20 10:46:06;;;;;;;2.28;2.08;;;12.50;99.90;;;13.65;70.45;98287.31;5230865;28;20233;-64
2023/03/20 10:48:45;;;;;;;2.47;2.28;;;12.50;99.90;;;13.65;70.03;98285.66;5227306;28;20196;-63
2023/03/20 10:51:22;;;;;;;1.73;1.63;;;12.60;99.90;;;13.57;71.94;98286.06;5243407;28;20198;-62
2023/03/20 10:54:00;;;;;;;2.00;1.90;;;12.50;99.90;;;13.65;71.69;98284.75;5233534;28;20221;-63
2023/03/20 10:56:39;;;;;;;2.90;2.70;;;12.50;99.90;;;13.58;72.49;98282.69;5234835;28;20304;-63
2023/03/20 10:59:23;;;;;;;2.30;2.20;;;12.50;99.90;;;13.52;71.84;98281.56;5242807;28;20219;-62
2023/03/20 11:01:56;;;;;;;3.35;2.10;;;12.50;99.90;;;13.62;71.42;98282.94;5234188;28;20197;-63